createdAt,value
2018-09-05T00:00:59.916Z,1013.60
2018-09-05T00:01:59.872Z,1013.61
2018-09-05T00:02:59.829Z,1013.63
2018-09-05T00:03:59.783Z,1013.59
2018-09-05T00:04:59.740Z,1013.59
2018-09-05T00:05:59.696Z,1013.58
2018-09-05T00:06:59.651Z,1013.62
2018-09-05T00:07:59.607Z,1013.63
2018-09-05T00:08:59.565Z,1013.63
2018-09-05T00:09:59.520Z,1013.63
2018-09-05T00:10:59.475Z,1013.57
2018-09-05T00:11:59.431Z,1013.62
2018-09-05T00:12:59.388Z,1013.66
2018-09-05T00:13:59.344Z,1013.61
2018-09-05T00:14:59.301Z,1013.62
2018-09-05T00:15:59.255Z,1013.60
2018-09-05T00:16:59.213Z,1013.63
2018-09-05T00:17:59.171Z,1013.63
2018-09-05T00:18:59.126Z,1013.57
2018-09-05T00:19:59.080Z,1013.60
2018-09-05T00:20:59.037Z,1013.54
2018-09-05T00:21:58.991Z,1013.54
2018-09-05T00:22:58.949Z,1013.52
2018-09-05T00:23:58.914Z,1013.50
2018-09-05T00:24:58.859Z,1013.51
2018-09-05T00:25:58.816Z,1013.50
2018-09-05T00:26:58.771Z,1013.48
2018-09-05T00:27:58.727Z,1013.48
2018-09-05T00:28:58.686Z,1013.44
2018-09-05T00:29:58.644Z,1013.46
2018-09-05T00:30:58.597Z,1013.49
2018-09-05T00:31:58.553Z,1013.52
2018-09-05T00:32:58.511Z,1013.47
2018-09-05T00:33:58.466Z,1013.47
2018-09-05T00:34:58.421Z,1013.48
2018-09-05T00:35:58.377Z,1013.49
2018-09-05T00:36:58.332Z,1013.50
2018-09-05T00:37:58.288Z,1013.49
2018-09-05T00:38:58.244Z,1013.48
2018-09-05T00:39:58.209Z,1013.46
2018-09-05T00:40:58.158Z,1013.49
2018-09-05T00:41:58.111Z,1013.50
2018-09-05T00:42:58.069Z,1013.51
2018-09-05T00:43:58.025Z,1013.49
2018-09-05T00:44:57.981Z,1013.55
2018-09-05T00:45:57.936Z,1013.55
2018-09-05T00:46:57.892Z,1013.56
2018-09-05T00:47:57.848Z,1013.58
2018-09-05T00:48:57.803Z,1013.57
2018-09-05T00:49:57.764Z,1013.57
2018-09-05T00:50:57.716Z,1013.60
2018-09-05T00:51:57.673Z,1013.58
2018-09-05T00:52:57.629Z,1013.54
2018-09-05T00:53:57.585Z,1013.58
2018-09-05T00:54:57.539Z,1013.57
2018-09-05T00:55:57.496Z,1013.55
2018-09-05T00:56:57.452Z,1013.58
2018-09-05T00:57:57.407Z,1013.57
2018-09-05T00:58:57.365Z,1013.57
2018-09-05T00:59:57.323Z,1013.58
2018-09-05T01:00:57.279Z,1013.55
2018-09-05T01:01:57.233Z,1013.58
2018-09-05T01:02:57.187Z,1013.59
2018-09-05T01:03:57.143Z,1013.57
2018-09-05T01:04:57.101Z,1013.60
2018-09-05T01:05:57.059Z,1013.59
2018-09-05T01:06:57.010Z,1013.55
2018-09-05T01:07:56.967Z,1013.55
2018-09-05T01:08:56.924Z,1013.54
2018-09-05T01:09:56.879Z,1013.56
2018-09-05T01:10:56.836Z,1013.56
2018-09-05T01:11:56.792Z,1013.57
2018-09-05T01:12:56.749Z,1013.54
2018-09-05T01:13:56.705Z,1013.58
2018-09-05T01:14:56.659Z,1013.55
2018-09-05T01:15:56.618Z,1013.58
2018-09-05T01:16:56.577Z,1013.57
2018-09-05T01:17:56.527Z,1013.58
2018-09-05T01:18:56.486Z,1013.55
2018-09-05T01:19:56.440Z,1013.56
2018-09-05T01:20:56.395Z,1013.56
2018-09-05T01:21:56.350Z,1013.56
2018-09-05T01:22:56.307Z,1013.54
2018-09-05T01:23:56.264Z,1013.51
2018-09-05T01:24:56.219Z,1013.55
2018-09-05T01:25:56.174Z,1013.54
2018-09-05T01:26:56.131Z,1013.55
2018-09-05T01:27:56.088Z,1013.56
2018-09-05T01:28:56.043Z,1013.56
2018-09-05T01:29:56.003Z,1013.57
2018-09-05T01:30:55.955Z,1013.54
2018-09-05T01:31:55.911Z,1013.59
2018-09-05T01:32:55.867Z,1013.57
2018-09-05T01:33:55.821Z,1013.57
2018-09-05T01:34:55.779Z,1013.61
2018-09-05T01:35:55.733Z,1013.60
2018-09-05T01:36:55.690Z,1013.63
2018-09-05T01:37:55.646Z,1013.62
2018-09-05T01:38:55.602Z,1013.63
2018-09-05T01:39:55.558Z,1013.63
2018-09-05T01:40:55.513Z,1013.68
2018-09-05T01:41:55.470Z,1013.62
2018-09-05T01:42:55.426Z,1013.63
2018-09-05T01:43:55.381Z,1013.68
2018-09-05T01:44:55.339Z,1013.67
2018-09-05T01:45:55.292Z,1013.67
2018-09-05T01:46:55.248Z,1013.68
2018-09-05T01:47:55.204Z,1013.72
2018-09-05T01:48:55.162Z,1013.73
2018-09-05T01:49:55.126Z,1013.73
2018-09-05T01:50:55.073Z,1013.69
2018-09-05T01:51:55.028Z,1013.72
2018-09-05T01:52:54.985Z,1013.71
2018-09-05T01:53:54.939Z,1013.74
2018-09-05T01:54:54.898Z,1013.70
2018-09-05T01:55:54.855Z,1013.73
2018-09-05T01:56:54.809Z,1013.75
2018-09-05T01:57:54.764Z,1013.71
2018-09-05T01:58:54.724Z,1013.71
2018-09-05T01:59:54.676Z,1013.68
2018-09-05T02:00:54.633Z,1013.71
2018-09-05T02:01:54.588Z,1013.74
2018-09-05T02:02:54.544Z,1013.72
2018-09-05T02:03:54.500Z,1013.71
2018-09-05T02:04:54.460Z,1013.71
2018-09-05T02:05:54.413Z,1013.69
2018-09-05T02:06:54.369Z,1013.73
2018-09-05T02:07:54.324Z,1013.71
2018-09-05T02:08:54.280Z,1013.68
2018-09-05T02:09:54.227Z,1013.66
2018-09-05T02:10:54.184Z,1013.69
2018-09-05T02:11:54.152Z,1013.72
2018-09-05T02:12:54.095Z,1013.71
2018-09-05T02:13:54.050Z,1013.69
2018-09-05T02:14:54.016Z,1013.68
2018-09-05T02:15:53.965Z,1013.67
2018-09-05T02:16:53.919Z,1013.67
2018-09-05T02:17:53.874Z,1013.69
2018-09-05T02:18:53.830Z,1013.67
2018-09-05T02:19:53.786Z,1013.68
2018-09-05T02:20:53.766Z,1013.68
2018-09-05T02:21:53.697Z,1013.65
2018-09-05T02:22:53.653Z,1013.65
2018-09-05T02:23:53.610Z,1013.64
2018-09-05T02:24:53.566Z,1013.64
2018-09-05T02:25:53.521Z,1013.67
2018-09-05T02:26:53.477Z,1013.65
2018-09-05T02:27:53.433Z,1013.70
2018-09-05T02:28:53.389Z,1013.71
2018-09-05T02:29:53.348Z,1013.71
2018-09-05T02:30:53.300Z,1013.68
2018-09-05T02:31:53.257Z,1013.71
2018-09-05T02:32:53.214Z,1013.74
2018-09-05T02:33:53.168Z,1013.76
2018-09-05T02:34:53.124Z,1013.72
2018-09-05T02:35:53.167Z,1013.75
2018-09-05T02:36:53.037Z,1013.76
2018-09-05T02:37:52.991Z,1013.76
2018-09-05T02:38:52.947Z,1013.78
2018-09-05T02:39:52.905Z,1013.77
2018-09-05T02:40:52.956Z,1013.75
2018-09-05T02:41:52.816Z,1013.75
2018-09-05T02:42:52.772Z,1013.79
2018-09-05T02:43:52.727Z,1013.77
2018-09-05T02:44:52.683Z,1013.77
2018-09-05T02:45:52.638Z,1013.79
2018-09-05T02:46:52.602Z,1013.73
2018-09-05T02:47:52.599Z,1013.82
2018-09-05T02:48:52.556Z,1013.79
2018-09-05T02:49:52.464Z,1013.81
2018-09-05T02:50:52.417Z,1013.80
2018-09-05T02:51:52.373Z,1013.79
2018-09-05T02:52:52.329Z,1013.78
2018-09-05T02:53:52.290Z,1013.77
2018-09-05T02:54:52.240Z,1013.76
2018-09-05T02:55:52.198Z,1013.79
2018-09-05T02:56:52.152Z,1013.75
2018-09-05T02:57:52.107Z,1013.80
2018-09-05T02:58:52.064Z,1013.79
2018-09-05T02:59:52.020Z,1013.79
2018-09-05T03:00:51.976Z,1013.80
2018-09-05T03:01:51.932Z,1013.81
2018-09-05T03:02:51.888Z,1013.80
2018-09-05T03:03:51.842Z,1013.79
2018-09-05T03:04:51.898Z,1013.77
2018-09-05T03:05:51.754Z,1013.82
2018-09-05T03:06:51.710Z,1013.85
2018-09-05T03:07:51.666Z,1013.85
2018-09-05T03:08:51.622Z,1013.87
2018-09-05T03:09:51.577Z,1013.87
2018-09-05T03:10:51.534Z,1013.87
2018-09-05T03:11:51.493Z,1013.88
2018-09-05T03:12:51.445Z,1013.87
2018-09-05T03:13:51.400Z,1013.93
2018-09-05T03:14:51.357Z,1013.92
2018-09-05T03:15:51.313Z,1013.92
2018-09-05T03:16:51.269Z,1013.93
2018-09-05T03:17:51.224Z,1013.91
2018-09-05T03:18:51.180Z,1013.91
2018-09-05T03:19:51.135Z,1013.86
2018-09-05T03:20:51.092Z,1013.91
2018-09-05T03:21:51.048Z,1013.89
2018-09-05T03:22:51.003Z,1013.90
2018-09-05T03:23:50.961Z,1013.95
2018-09-05T03:24:50.915Z,1013.90
2018-09-05T03:25:50.870Z,1013.92
2018-09-05T03:26:50.832Z,1013.92
2018-09-05T03:27:50.782Z,1013.92
2018-09-05T03:28:50.739Z,1013.94
2018-09-05T03:29:50.694Z,1013.94
2018-09-05T03:30:50.649Z,1013.91
2018-09-05T03:31:50.606Z,1013.91
2018-09-05T03:32:50.713Z,1013.92
2018-09-05T03:33:50.518Z,1013.91
2018-09-05T03:34:50.473Z,1013.90
2018-09-05T03:35:50.428Z,1013.93
2018-09-05T03:36:50.385Z,1013.95
2018-09-05T03:37:50.340Z,1013.95
2018-09-05T03:38:50.296Z,1013.97
2018-09-05T03:39:50.252Z,1013.96
2018-09-05T03:40:50.208Z,1013.98
2018-09-05T03:41:50.263Z,1013.98
2018-09-05T03:42:50.119Z,1013.97
2018-09-05T03:43:50.079Z,1013.98
2018-09-05T03:44:50.032Z,1013.96
2018-09-05T03:45:49.988Z,1013.97
2018-09-05T03:46:49.942Z,1013.99
2018-09-05T03:47:49.898Z,1013.98
2018-09-05T03:48:49.854Z,1013.98
2018-09-05T03:49:49.848Z,1013.97
2018-09-05T03:50:49.766Z,1013.99
2018-09-05T03:51:49.821Z,1013.97
2018-09-05T03:52:49.678Z,1013.98
2018-09-05T03:53:49.634Z,1014.02
2018-09-05T03:54:49.589Z,1014.00
2018-09-05T03:55:49.545Z,1013.98
2018-09-05T03:56:49.501Z,1014.01
2018-09-05T03:57:49.459Z,1014.00
2018-09-05T03:58:49.412Z,1014.03
2018-09-05T03:59:49.369Z,1014.03
2018-09-05T04:00:49.324Z,1014.01
2018-09-05T04:01:49.279Z,1014.02
2018-09-05T04:02:49.235Z,1014.02
2018-09-05T04:03:49.192Z,1014.06
2018-09-05T04:04:49.148Z,1014.03
2018-09-05T04:05:49.102Z,1014.01
2018-09-05T04:06:49.059Z,1013.99
2018-09-05T04:07:49.016Z,1013.97
2018-09-05T04:08:48.975Z,1014.01
2018-09-05T04:09:48.927Z,1014.01
2018-09-05T04:10:48.881Z,1014.01
2018-09-05T04:11:48.838Z,1014.05
2018-09-05T04:12:48.794Z,1014.06
2018-09-05T04:13:48.750Z,1014.06
2018-09-05T04:14:48.707Z,1014.08
2018-09-05T04:15:48.660Z,1014.07
2018-09-05T04:16:48.617Z,1014.04
2018-09-05T04:17:48.571Z,1014.02
2018-09-05T04:18:48.528Z,1014.08
2018-09-05T04:19:48.484Z,1014.07
2018-09-05T04:20:48.440Z,1014.08
2018-09-05T04:21:48.395Z,1014.06
2018-09-05T04:22:48.351Z,1014.08
2018-09-05T04:23:48.308Z,1014.10
2018-09-05T04:24:48.264Z,1014.10
2018-09-05T04:25:48.225Z,1014.09
2018-09-05T04:26:48.174Z,1014.11
2018-09-05T04:27:48.131Z,1014.07
2018-09-05T04:28:48.087Z,1014.10
2018-09-05T04:29:48.118Z,1014.09
2018-09-05T04:30:47.997Z,1014.10
2018-09-05T04:31:47.954Z,1014.05
2018-09-05T04:32:47.909Z,1014.05
2018-09-05T04:33:47.865Z,1014.05
2018-09-05T04:34:47.825Z,1014.09
2018-09-05T04:35:47.777Z,1014.08
2018-09-05T04:36:47.736Z,1014.10
2018-09-05T04:37:47.690Z,1014.10
2018-09-05T04:38:47.647Z,1014.10
2018-09-05T04:39:47.601Z,1014.12
2018-09-05T04:40:47.556Z,1014.15
2018-09-05T04:41:47.512Z,1014.12
2018-09-05T04:42:47.469Z,1014.14
2018-09-05T04:43:47.428Z,1014.14
2018-09-05T04:44:47.379Z,1014.17
2018-09-05T04:45:47.337Z,1014.13
2018-09-05T04:46:47.290Z,1014.21
2018-09-05T04:47:47.246Z,1014.21
2018-09-05T04:48:47.203Z,1014.20
2018-09-05T04:49:47.161Z,1014.20
2018-09-05T04:50:47.117Z,1014.22
2018-09-05T04:51:47.069Z,1014.22
2018-09-05T04:52:47.148Z,1014.24
2018-09-05T04:53:46.983Z,1014.25
2018-09-05T04:54:46.936Z,1014.24
2018-09-05T04:55:46.892Z,1014.27
2018-09-05T04:56:46.849Z,1014.25
2018-09-05T04:57:46.803Z,1014.25
2018-09-05T04:58:46.760Z,1014.32
2018-09-05T04:59:46.722Z,1014.29
2018-09-05T05:00:46.672Z,1014.28
2018-09-05T05:01:46.627Z,1014.30
2018-09-05T05:02:46.583Z,1014.33
2018-09-05T05:03:46.538Z,1014.33
2018-09-05T05:04:46.502Z,1014.34
2018-09-05T05:05:46.474Z,1014.33
2018-09-05T05:06:46.406Z,1014.34
2018-09-05T05:07:46.363Z,1014.34
2018-09-05T05:08:46.318Z,1014.33
2018-09-05T05:09:46.273Z,1014.37
2018-09-05T05:10:46.229Z,1014.35
2018-09-05T05:11:46.185Z,1014.37
2018-09-05T05:12:46.142Z,1014.38
2018-09-05T05:13:46.105Z,1014.43
2018-09-05T05:14:46.054Z,1014.43
2018-09-05T05:15:46.008Z,1014.44
2018-09-05T05:16:45.964Z,1014.49
2018-09-05T05:17:45.919Z,1014.50
2018-09-05T05:18:45.876Z,1014.49
2018-09-05T05:19:45.831Z,1014.48
2018-09-05T05:20:45.788Z,1014.54
2018-09-05T05:21:45.742Z,1014.56
2018-09-05T05:22:45.700Z,1014.54
2018-09-05T05:23:45.654Z,1014.55
2018-09-05T05:24:45.610Z,1014.53
2018-09-05T05:25:45.565Z,1014.56
2018-09-05T05:26:45.521Z,1014.56
2018-09-05T05:27:45.477Z,1014.57
2018-09-05T05:28:45.434Z,1014.56
2018-09-05T05:29:45.388Z,1014.55
2018-09-05T05:30:45.344Z,1014.53
2018-09-05T05:31:45.300Z,1014.58
2018-09-05T05:32:45.358Z,1014.53
2018-09-05T05:33:45.212Z,1014.56
2018-09-05T05:34:45.167Z,1014.55
2018-09-05T05:35:45.124Z,1014.54
2018-09-05T05:36:45.082Z,1014.56
2018-09-05T05:37:45.035Z,1014.55
2018-09-05T05:38:44.990Z,1014.56
2018-09-05T05:39:44.951Z,1014.54
2018-09-05T05:40:44.902Z,1014.53
2018-09-05T05:41:44.858Z,1014.56
2018-09-05T05:42:44.816Z,1014.56
2018-09-05T05:43:44.770Z,1014.57
2018-09-05T05:44:44.729Z,1014.55
2018-09-05T05:45:44.680Z,1014.57
2018-09-05T05:46:44.659Z,1014.60
2018-09-05T05:47:44.593Z,1014.62
2018-09-05T05:48:44.549Z,1014.63
2018-09-05T05:49:44.503Z,1014.64
2018-09-05T05:50:44.460Z,1014.63
2018-09-05T05:51:44.415Z,1014.62
2018-09-05T05:52:44.372Z,1014.68
2018-09-05T05:53:44.327Z,1014.65
2018-09-05T05:54:44.283Z,1014.65
2018-09-05T05:55:44.239Z,1014.68
2018-09-05T05:56:44.195Z,1014.62
2018-09-05T05:57:44.150Z,1014.65
2018-09-05T05:58:44.115Z,1014.61
2018-09-05T05:59:44.062Z,1014.63
2018-09-05T06:00:44.063Z,1014.62
2018-09-05T06:01:43.973Z,1014.64
2018-09-05T06:02:43.929Z,1014.66
2018-09-05T06:03:43.885Z,1014.65
2018-09-05T06:04:43.841Z,1014.63
2018-09-05T06:05:43.797Z,1014.65
2018-09-05T06:06:43.752Z,1014.69
2018-09-05T06:07:43.707Z,1014.70
2018-09-05T06:08:43.664Z,1014.67
2018-09-05T06:09:43.619Z,1014.65
2018-09-05T06:10:43.575Z,1014.66
2018-09-05T06:11:43.532Z,1014.64
2018-09-05T06:12:43.489Z,1014.65
2018-09-05T06:13:43.442Z,1014.67
2018-09-05T06:14:43.400Z,1014.73
2018-09-05T06:15:43.354Z,1014.71
2018-09-05T06:16:43.310Z,1014.75
2018-09-05T06:17:43.352Z,1014.74
2018-09-05T06:18:43.221Z,1014.75
2018-09-05T06:19:43.184Z,1014.77
2018-09-05T06:20:43.133Z,1014.76
2018-09-05T06:21:43.087Z,1014.76
2018-09-05T06:22:43.042Z,1014.78
2018-09-05T06:23:43.000Z,1014.75
2018-09-05T06:24:42.956Z,1014.78
2018-09-05T06:25:42.910Z,1014.77
2018-09-05T06:26:42.865Z,1014.77
2018-09-05T06:27:42.832Z,1014.79
2018-09-05T06:28:42.776Z,1014.80
2018-09-05T06:29:42.732Z,1014.82
2018-09-05T06:30:42.863Z,1014.81
2018-09-05T06:31:42.644Z,1014.80
2018-09-05T06:32:42.600Z,1014.79
2018-09-05T06:33:42.554Z,1014.83
2018-09-05T06:34:42.510Z,1014.84
2018-09-05T06:35:42.465Z,1014.86
2018-09-05T06:36:42.421Z,1014.82
2018-09-05T06:37:42.379Z,1014.81
2018-09-05T06:38:42.332Z,1014.86
2018-09-05T06:39:42.288Z,1014.83
2018-09-05T06:40:42.243Z,1014.88
2018-09-05T06:41:42.198Z,1014.83
2018-09-05T06:42:42.154Z,1014.90
2018-09-05T06:43:42.112Z,1014.90
2018-09-05T06:44:42.065Z,1014.96
2018-09-05T06:45:42.020Z,1014.92
2018-09-05T06:46:41.975Z,1014.89
2018-09-05T06:47:41.935Z,1014.93
2018-09-05T06:48:41.888Z,1014.92
2018-09-05T06:49:41.841Z,1014.93
2018-09-05T06:50:41.797Z,1014.95
2018-09-05T06:51:41.753Z,1014.96
2018-09-05T06:52:41.708Z,1014.93
2018-09-05T06:53:41.663Z,1014.91
2018-09-05T06:54:41.619Z,1014.90
2018-09-05T06:55:41.579Z,1014.89
2018-09-05T06:56:41.630Z,1014.89
2018-09-05T06:57:41.485Z,1014.87
2018-09-05T06:58:41.441Z,1014.88
2018-09-05T06:59:41.397Z,1014.87
2018-09-05T07:00:41.355Z,1014.90
2018-09-05T07:01:41.312Z,1014.87
2018-09-05T07:02:41.262Z,1014.95
2018-09-05T07:03:41.316Z,1014.90
2018-09-05T07:04:41.174Z,1014.93
2018-09-05T07:05:41.129Z,1014.93
2018-09-05T07:06:41.100Z,1015.00
2018-09-05T07:07:41.041Z,1014.92
2018-09-05T07:08:41.047Z,1014.92
2018-09-05T07:09:40.952Z,1014.94
2018-09-05T07:10:40.908Z,1014.94
2018-09-05T07:11:40.863Z,1014.96
2018-09-05T07:12:40.820Z,1014.98
2018-09-05T07:13:40.775Z,1015.01
2018-09-05T07:14:40.820Z,1014.97
2018-09-05T07:15:40.687Z,1014.96
2018-09-05T07:16:40.643Z,1014.92
2018-09-05T07:17:40.664Z,1015.04
2018-09-05T07:18:40.554Z,1014.91
2018-09-05T07:19:40.514Z,1014.99
2018-09-05T07:20:40.466Z,1014.99
2018-09-05T07:21:40.424Z,1014.99
2018-09-05T07:22:40.378Z,1014.97
2018-09-05T07:23:40.336Z,1014.96
2018-09-05T07:24:40.290Z,1014.95
2018-09-05T07:25:40.245Z,1014.95
2018-09-05T07:26:40.202Z,1014.98
2018-09-05T07:27:40.193Z,1014.99
2018-09-05T07:28:40.115Z,1014.94
2018-09-05T07:29:40.071Z,1014.98
2018-09-05T07:30:40.267Z,1014.95
2018-09-05T07:31:39.985Z,1014.94
2018-09-05T07:32:39.942Z,1014.96
2018-09-05T07:33:39.900Z,1014.95
2018-09-05T07:34:39.855Z,1014.98
2018-09-05T07:35:39.818Z,1014.96
2018-09-05T07:36:39.770Z,1014.92
2018-09-05T07:37:39.727Z,1014.92
2018-09-05T07:38:39.684Z,1014.96
2018-09-05T07:39:39.642Z,1014.98
2018-09-05T07:40:39.599Z,1014.95
2018-09-05T07:41:39.555Z,1014.96
2018-09-05T07:42:39.514Z,1014.96
2018-09-05T07:43:39.524Z,1014.99
2018-09-05T07:44:39.429Z,1014.96
2018-09-05T07:45:39.386Z,1014.98
2018-09-05T07:46:39.344Z,1015.01
2018-09-05T07:47:39.302Z,1014.98
2018-09-05T07:48:39.268Z,1015.00
2018-09-05T07:49:39.268Z,1015.03
2018-09-05T07:50:39.243Z,1015.00
2018-09-05T07:51:39.134Z,1014.98
2018-09-05T07:52:39.093Z,1015.03
2018-09-05T07:53:39.049Z,1015.05
2018-09-05T07:54:39.008Z,1015.00
2018-09-05T07:55:38.967Z,1015.03
2018-09-05T07:56:38.924Z,1015.07
2018-09-05T07:57:38.883Z,1015.05
2018-09-05T07:58:38.840Z,1015.03
2018-09-05T07:59:38.799Z,1015.02
2018-09-05T08:00:38.758Z,1015.05
2018-09-05T08:01:38.716Z,1015.10
2018-09-05T08:02:38.675Z,1015.03
2018-09-05T08:03:38.633Z,1015.05
2018-09-05T08:04:38.593Z,1015.04
2018-09-05T08:05:38.550Z,1015.06
2018-09-05T08:06:38.510Z,1015.05
2018-09-05T08:07:38.468Z,1015.06
2018-09-05T08:08:38.428Z,1015.07
2018-09-05T08:09:38.386Z,1015.05
2018-09-05T08:10:38.346Z,1015.02
2018-09-05T08:11:38.328Z,1015.07
2018-09-05T08:12:38.264Z,1015.07
2018-09-05T08:13:38.223Z,1014.99
2018-09-05T08:14:38.184Z,1015.12
2018-09-05T08:15:38.143Z,1015.02
2018-09-05T08:16:38.102Z,1015.12
2018-09-05T08:17:38.061Z,1015.12
2018-09-05T08:18:38.024Z,1014.96
2018-09-05T08:19:37.980Z,1015.06
2018-09-05T08:20:37.940Z,1015.09
2018-09-05T08:21:37.898Z,1014.98
2018-09-05T08:22:37.857Z,1014.95
2018-09-05T08:23:37.817Z,1014.92
2018-09-05T08:24:37.924Z,1015.07
2018-09-05T08:25:37.742Z,1015.05
2018-09-05T08:26:37.701Z,1014.92
2018-09-05T08:27:37.655Z,1015.05
2018-09-05T08:28:37.614Z,1015.02
2018-09-05T08:29:37.571Z,1014.96
2018-09-05T08:30:37.532Z,1015.02
2018-09-05T08:31:37.491Z,1014.92
2018-09-05T08:32:37.451Z,1014.91
2018-09-05T08:33:37.409Z,1014.95
2018-09-05T08:34:37.397Z,1014.90
2018-09-05T08:35:37.534Z,1014.92
2018-09-05T08:36:37.635Z,1015.08
2018-09-05T08:37:37.421Z,1014.88
2018-09-05T08:38:37.256Z,1014.93
2018-09-05T08:39:37.164Z,1014.97
2018-09-05T08:40:37.128Z,1015.00
2018-09-05T08:41:37.161Z,1015.00
2018-09-05T08:42:37.063Z,1014.98
2018-09-05T08:43:37.039Z,1014.96
2018-09-05T08:44:37.036Z,1014.93
2018-09-05T08:45:37.027Z,1014.91
2018-09-05T08:46:36.876Z,1014.94
2018-09-05T08:47:36.837Z,1014.93
2018-09-05T08:48:36.909Z,1014.96
2018-09-05T08:49:36.761Z,1014.95
2018-09-05T08:50:36.716Z,1014.94
2018-09-05T08:51:36.677Z,1014.94
2018-09-05T08:52:36.639Z,1014.96
2018-09-05T08:53:36.598Z,1014.97
2018-09-05T08:54:36.559Z,1014.94
2018-09-05T08:55:36.519Z,1014.98
2018-09-05T08:56:36.505Z,1014.97
2018-09-05T08:57:36.444Z,1014.94
2018-09-05T08:58:36.451Z,1014.93
2018-09-05T08:59:36.364Z,1014.96
2018-09-05T09:00:36.329Z,1014.93
2018-09-05T09:01:36.287Z,1014.86
2018-09-05T09:02:36.248Z,1014.90
2018-09-05T09:03:36.217Z,1014.82
2018-09-05T09:04:36.244Z,1014.77
2018-09-05T09:05:36.133Z,1014.76
2018-09-05T09:06:36.094Z,1014.79
2018-09-05T09:07:36.106Z,1014.83
2018-09-05T09:08:36.017Z,1014.77
2018-09-05T09:09:35.982Z,1014.76
2018-09-05T09:10:35.940Z,1014.75
2018-09-05T09:11:35.903Z,1014.76
2018-09-05T09:12:35.865Z,1014.80
2018-09-05T09:13:35.820Z,1014.79
2018-09-05T09:14:35.780Z,1014.82
2018-09-05T09:15:35.740Z,1014.83
2018-09-05T09:16:35.701Z,1014.82
2018-09-05T09:17:35.663Z,1014.91
2018-09-05T09:18:35.618Z,1014.81
2018-09-05T09:19:35.578Z,1014.84
2018-09-05T09:20:35.538Z,1014.88
2018-09-05T09:21:35.496Z,1014.90
2018-09-05T09:22:35.456Z,1014.89
2018-09-05T09:23:35.417Z,1014.93
2018-09-05T09:24:35.375Z,1014.87
2018-09-05T09:25:35.333Z,1014.91
2018-09-05T09:26:35.291Z,1014.86
2018-09-05T09:27:35.262Z,1014.80
2018-09-05T09:28:35.208Z,1014.91
2018-09-05T09:29:35.166Z,1014.91
2018-09-05T09:30:35.124Z,1014.86
2018-09-05T09:31:35.084Z,1014.86
2018-09-05T09:32:35.042Z,1014.91
2018-09-05T09:33:34.999Z,1014.84
2018-09-05T09:34:34.958Z,1014.92
2018-09-05T09:35:34.916Z,1014.88
2018-09-05T09:36:34.873Z,1014.88
2018-09-05T09:37:34.831Z,1014.82
2018-09-05T09:38:34.788Z,1014.82
2018-09-05T09:39:34.746Z,1014.78
2018-09-05T09:40:34.705Z,1014.79
2018-09-05T09:41:34.663Z,1014.76
2018-09-05T09:42:34.624Z,1014.75
2018-09-05T09:43:34.577Z,1014.72
2018-09-05T09:44:34.535Z,1014.71
2018-09-05T09:45:34.492Z,1014.71
2018-09-05T09:46:34.462Z,1014.74
2018-09-05T09:47:34.407Z,1014.65
2018-09-05T09:48:34.368Z,1014.58
2018-09-05T09:49:34.322Z,1014.65
2018-09-05T09:50:34.283Z,1014.64
2018-09-05T09:51:34.239Z,1014.65
2018-09-05T09:52:34.195Z,1014.67
2018-09-05T09:53:34.151Z,1014.60
2018-09-05T09:54:34.109Z,1014.63
2018-09-05T09:55:34.067Z,1014.62
2018-09-05T09:56:34.083Z,1014.60
2018-09-05T09:57:33.980Z,1014.64
2018-09-05T09:58:33.936Z,1014.60
2018-09-05T09:59:33.896Z,1014.57
2018-09-05T10:00:33.852Z,1014.60
2018-09-05T10:01:33.809Z,1014.56
2018-09-05T10:02:33.766Z,1014.52
2018-09-05T10:03:33.867Z,1014.50
2018-09-05T10:04:33.681Z,1014.47
2018-09-05T10:05:33.636Z,1014.47
2018-09-05T10:06:33.594Z,1014.46
2018-09-05T10:07:33.552Z,1014.50
2018-09-05T10:08:33.509Z,1014.52
2018-09-05T10:09:33.503Z,1014.50
2018-09-05T10:10:33.443Z,1014.48
2018-09-05T10:11:33.380Z,1014.44
2018-09-05T10:12:33.342Z,1014.46
2018-09-05T10:13:33.294Z,1014.49
2018-09-05T10:14:33.251Z,1014.46
2018-09-05T10:15:33.208Z,1014.50
2018-09-05T10:16:33.165Z,1014.45
2018-09-05T10:17:33.121Z,1014.48
2018-09-05T10:18:33.078Z,1014.50
2018-09-05T10:19:33.036Z,1014.48
2018-09-05T10:20:32.997Z,1014.51
2018-09-05T10:21:32.948Z,1014.46
2018-09-05T10:22:32.939Z,1014.48
2018-09-05T10:23:32.866Z,1014.48
2018-09-05T10:24:32.820Z,1014.46
2018-09-05T10:25:32.776Z,1014.49
2018-09-05T10:26:32.734Z,1014.48
2018-09-05T10:27:32.743Z,1014.45
2018-09-05T10:28:32.648Z,1014.50
2018-09-05T10:29:32.603Z,1014.49
2018-09-05T10:30:32.561Z,1014.49
2018-09-05T10:31:32.552Z,1014.46
2018-09-05T10:32:32.478Z,1014.40
2018-09-05T10:33:32.431Z,1014.47
2018-09-05T10:34:32.389Z,1014.49
2018-09-05T10:35:32.348Z,1014.53
2018-09-05T10:36:32.309Z,1014.47
2018-09-05T10:37:32.261Z,1014.51
2018-09-05T10:38:32.215Z,1014.49
2018-09-05T10:39:32.172Z,1014.52
2018-09-05T10:40:32.130Z,1014.51
2018-09-05T10:41:32.086Z,1014.50
2018-09-05T10:42:32.043Z,1014.52
2018-09-05T10:43:31.999Z,1014.47
2018-09-05T10:44:31.959Z,1014.46
2018-09-05T10:45:31.913Z,1014.48
2018-09-05T10:46:31.879Z,1014.46
2018-09-05T10:47:31.828Z,1014.42
2018-09-05T10:48:31.783Z,1014.44
2018-09-05T10:49:31.739Z,1014.38
2018-09-05T10:50:31.700Z,1014.41
2018-09-05T10:51:31.653Z,1014.41
2018-09-05T10:52:31.616Z,1014.41
2018-09-05T10:53:31.574Z,1014.40
2018-09-05T10:54:31.523Z,1014.35
2018-09-05T10:55:31.483Z,1014.38
2018-09-05T10:56:31.435Z,1014.38
2018-09-05T10:57:31.393Z,1014.35
2018-09-05T10:58:31.349Z,1014.36
2018-09-05T10:59:31.306Z,1014.31
2018-09-05T11:00:31.264Z,1014.35
2018-09-05T11:01:31.220Z,1014.29
2018-09-05T11:02:31.177Z,1014.32
2018-09-05T11:03:31.133Z,1014.30
2018-09-05T11:04:31.090Z,1014.27
2018-09-05T11:05:31.048Z,1014.27
2018-09-05T11:06:31.004Z,1014.29
2018-09-05T11:07:30.960Z,1014.33
2018-09-05T11:08:30.916Z,1014.29
2018-09-05T11:09:30.873Z,1014.30
2018-09-05T11:10:30.890Z,1014.29
2018-09-05T11:11:30.787Z,1014.33
2018-09-05T11:12:30.744Z,1014.29
2018-09-05T11:13:30.699Z,1014.32
2018-09-05T11:14:30.656Z,1014.30
2018-09-05T11:15:30.613Z,1014.25
2018-09-05T11:16:30.572Z,1014.22
2018-09-05T11:17:30.525Z,1014.25
2018-09-05T11:18:30.481Z,1014.22
2018-09-05T11:19:30.445Z,1014.20
2018-09-05T11:20:30.396Z,1014.17
2018-09-05T11:21:30.355Z,1014.17
2018-09-05T11:22:30.308Z,1014.15
2018-09-05T11:23:30.264Z,1014.13
2018-09-05T11:24:30.224Z,1014.16
2018-09-05T11:25:30.215Z,1014.15
2018-09-05T11:26:30.172Z,1014.12
2018-09-05T11:27:30.126Z,1014.07
2018-09-05T11:28:30.098Z,1014.07
2018-09-05T11:29:30.004Z,1014.07
2018-09-05T11:30:29.961Z,1014.06
2018-09-05T11:31:29.918Z,1014.07
2018-09-05T11:32:29.875Z,1014.04
2018-09-05T11:33:29.830Z,1014.01
2018-09-05T11:34:29.787Z,1014.02
2018-09-05T11:35:29.749Z,1013.99
2018-09-05T11:36:29.702Z,1013.99
2018-09-05T11:37:29.656Z,1013.97
2018-09-05T11:38:29.613Z,1013.99
2018-09-05T11:39:29.569Z,1014.03
2018-09-05T11:40:29.527Z,1014.03
2018-09-05T11:41:29.485Z,1014.03
2018-09-05T11:42:29.447Z,1014.02
2018-09-05T11:43:29.396Z,1013.98
2018-09-05T11:44:29.359Z,1013.99
2018-09-05T11:45:29.309Z,1014.03
2018-09-05T11:46:29.266Z,1014.06
2018-09-05T11:47:29.222Z,1014.05
2018-09-05T11:48:29.180Z,1014.04
2018-09-05T11:49:29.136Z,1014.06
2018-09-05T11:50:29.092Z,1014.05
2018-09-05T11:51:29.049Z,1014.05
2018-09-05T11:52:29.013Z,1014.05
2018-09-05T11:53:28.962Z,1014.07
2018-09-05T11:54:28.918Z,1014.07
2018-09-05T11:55:28.875Z,1014.06
2018-09-05T11:56:28.833Z,1014.04
2018-09-05T11:57:28.788Z,1014.09
2018-09-05T11:58:28.794Z,1014.07
2018-09-05T11:59:28.705Z,1014.10
2018-09-05T12:00:28.658Z,1014.07
2018-09-05T12:01:28.614Z,1014.03
2018-09-05T12:02:28.578Z,1014.02
2018-09-05T12:03:28.528Z,1013.95
2018-09-05T12:04:28.483Z,1013.99
2018-09-05T12:05:28.440Z,1014.01